sensor_id;sensor_type;location;lat;lon;timestamp;P1;durP1;ratioP1;P2;durP2;ratioP2
53875;SDS011;39789;53.216;5.624;2024-01-15T00:02:12;16.73;;;5.38;;
53875;SDS011;39789;53.216;5.624;2024-01-15T00:04:38;18.40;;;4.82;;
53875;SDS011;39789;53.216;5.624;2024-01-15T00:07:05;20.05;;;5.50;;
53875;SDS011;39789;53.216;5.624;2024-01-15T00:09:31;15.05;;;5.00;;
53875;SDS011;39789;53.216;5.624;2024-01-15T00:11:58;14.40;;;4.82;;
53875;SDS011;39789;53.216;5.624;2024-01-15T00:14:24;18.17;;;4.30;;
53875;SDS011;39789;53.216;5.624;2024-01-15T00:16:50;15.60;;;4.43;;
53875;SDS011;39789;53.216;5.624;2024-01-15T00:19:19;18.25;;;5.25;;
53875;SDS011;39789;53.216;5.624;2024-01-15T00:21:45;20.35;;;5.30;;
53875;SDS011;39789;53.216;5.624;2024-01-15T00:24:10;20.52;;;6.20;;
53875;SDS011;39789;53.216;5.624;2024-01-15T00:26:37;23.08;;;5.35;;
53875;SDS011;39789;53.216;5.624;2024-01-15T00:29:03;15.23;;;4.53;;
53875;SDS011;39789;53.216;5.624;2024-01-15T00:31:29;21.10;;;5.18;;
53875;SDS011;39789;53.216;5.624;2024-01-15T00:33:55;17.15;;;5.18;;
53875;SDS011;39789;53.216;5.624;2024-01-15T00:36:22;4.28;;;1.95;;
53875;SDS011;39789;53.216;5.624;2024-01-15T00:38:48;6.60;;;2.08;;
53875;SDS011;39789;53.216;5.624;2024-01-15T00:41:16;8.90;;;2.80;;
53875;SDS011;39789;53.216;5.624;2024-01-15T00:43:43;10.88;;;2.85;;
53875;SDS011;39789;53.216;5.624;2024-01-15T00:46:14;14.88;;;3.40;;
53875;SDS011;39789;53.216;5.624;2024-01-15T00:48:40;15.15;;;3.50;;
53875;SDS011;39789;53.216;5.624;2024-01-15T00:51:05;10.95;;;3.78;;
53875;SDS011;39789;53.216;5.624;2024-01-15T00:53:31;14.13;;;3.42;;
53875;SDS011;39789;53.216;5.624;2024-01-15T00:55:57;8.25;;;2.55;;
53875;SDS011;39789;53.216;5.624;2024-01-15T00:58:26;16.08;;;4.32;;
53875;SDS011;39789;53.216;5.624;2024-01-15T01:00:52;9.43;;;2.70;;
53875;SDS011;39789;53.216;5.624;2024-01-15T01:03:17;14.30;;;3.42;;
53875;SDS011;39789;53.216;5.624;2024-01-15T01:05:43;10.95;;;3.60;;
53875;SDS011;39789;53.216;5.624;2024-01-15T01:08:10;21.98;;;4.15;;
53875;SDS011;39789;53.216;5.624;2024-01-15T01:10:35;16.92;;;5.60;;
53875;SDS011;39789;53.216;5.624;2024-01-15T01:13:01;24.33;;;5.75;;
53875;SDS011;39789;53.216;5.624;2024-01-15T01:15:27;12.73;;;4.70;;
53875;SDS011;39789;53.216;5.624;2024-01-15T01:17:53;16.25;;;5.60;;
53875;SDS011;39789;53.216;5.624;2024-01-15T01:20:18;16.45;;;4.85;;
53875;SDS011;39789;53.216;5.624;2024-01-15T01:22:44;19.13;;;4.80;;
53875;SDS011;39789;53.216;5.624;2024-01-15T01:25:10;19.77;;;4.93;;
53875;SDS011;39789;53.216;5.624;2024-01-15T01:27:35;20.67;;;5.47;;
53875;SDS011;39789;53.216;5.624;2024-01-15T01:30:01;20.52;;;4.78;;
53875;SDS011;39789;53.216;5.624;2024-01-15T01:32:28;20.25;;;5.38;;
53875;SDS011;39789;53.216;5.624;2024-01-15T01:34:54;18.40;;;5.45;;
53875;SDS011;39789;53.216;5.624;2024-01-15T01:37:19;21.15;;;5.60;;
53875;SDS011;39789;53.216;5.624;2024-01-15T01:39:45;20.90;;;5.22;;
53875;SDS011;39789;53.216;5.624;2024-01-15T01:42:11;18.73;;;5.22;;
53875;SDS011;39789;53.216;5.624;2024-01-15T01:44:37;18.38;;;5.45;;
53875;SDS011;39789;53.216;5.624;2024-01-15T01:47:03;20.58;;;5.65;;
53875;SDS011;39789;53.216;5.624;2024-01-15T01:49:29;24.10;;;5.75;;
53875;SDS011;39789;53.216;5.624;2024-01-15T01:51:56;24.05;;;5.00;;
53875;SDS011;39789;53.216;5.624;2024-01-15T01:54:23;23.65;;;5.35;;
53875;SDS011;39789;53.216;5.624;2024-01-15T01:56:51;19.10;;;4.93;;
53875;SDS011;39789;53.216;5.624;2024-01-15T01:59:17;16.65;;;4.90;;
53875;SDS011;39789;53.216;5.624;2024-01-15T02:01:44;18.25;;;5.30;;
53875;SDS011;39789;53.216;5.624;2024-01-15T02:04:10;17.48;;;5.60;;
53875;SDS011;39789;53.216;5.624;2024-01-15T02:06:37;25.35;;;5.78;;
53875;SDS011;39789;53.216;5.624;2024-01-15T02:09:03;23.98;;;5.90;;
53875;SDS011;39789;53.216;5.624;2024-01-15T02:11:30;17.27;;;4.22;;
53875;SDS011;39789;53.216;5.624;2024-01-15T02:13:56;11.23;;;3.60;;
53875;SDS011;39789;53.216;5.624;2024-01-15T02:16:22;16.25;;;3.80;;
53875;SDS011;39789;53.216;5.624;2024-01-15T02:18:47;15.73;;;4.28;;
53875;SDS011;39789;53.216;5.624;2024-01-15T02:21:13;12.43;;;4.03;;
53875;SDS011;39789;53.216;5.624;2024-01-15T02:23:39;16.85;;;5.05;;
53875;SDS011;39789;53.216;5.624;2024-01-15T02:26:05;14.35;;;4.68;;
53875;SDS011;39789;53.216;5.624;2024-01-15T02:28:32;21.73;;;4.85;;
53875;SDS011;39789;53.216;5.624;2024-01-15T02:30:58;14.60;;;4.35;;
53875;SDS011;39789;53.216;5.624;2024-01-15T02:33:24;13.15;;;3.75;;
53875;SDS011;39789;53.216;5.624;2024-01-15T02:35:50;8.63;;;2.63;;
53875;SDS011;39789;53.216;5.624;2024-01-15T02:38:16;8.38;;;2.72;;
53875;SDS011;39789;53.216;5.624;2024-01-15T02:40:43;9.88;;;2.88;;
53875;SDS011;39789;53.216;5.624;2024-01-15T02:43:09;5.45;;;2.25;;
53875;SDS011;39789;53.216;5.624;2024-01-15T02:45:35;7.82;;;2.80;;
53875;SDS011;39789;53.216;5.624;2024-01-15T02:48:00;8.85;;;3.22;;
53875;SDS011;39789;53.216;5.624;2024-01-15T02:50:26;15.63;;;3.67;;
53875;SDS011;39789;53.216;5.624;2024-01-15T02:52:52;12.25;;;4.50;;
53875;SDS011;39789;53.216;5.624;2024-01-15T02:55:18;16.90;;;4.80;;
53875;SDS011;39789;53.216;5.624;2024-01-15T02:57:43;15.57;;;5.18;;
53875;SDS011;39789;53.216;5.624;2024-01-15T03:00:09;10.57;;;3.90;;
53875;SDS011;39789;53.216;5.624;2024-01-15T03:02:36;14.63;;;4.47;;
53875;SDS011;39789;53.216;5.624;2024-01-15T03:05:05;15.30;;;4.10;;
53875;SDS011;39789;53.216;5.624;2024-01-15T03:07:32;14.30;;;4.10;;
53875;SDS011;39789;53.216;5.624;2024-01-15T03:09:58;14.25;;;4.50;;
53875;SDS011;39789;53.216;5.624;2024-01-15T03:12:24;13.30;;;3.70;;
53875;SDS011;39789;53.216;5.624;2024-01-15T03:14:49;5.85;;;2.22;;
53875;SDS011;39789;53.216;5.624;2024-01-15T03:17:15;5.05;;;2.53;;
53875;SDS011;39789;53.216;5.624;2024-01-15T03:19:41;9.02;;;2.30;;
53875;SDS011;39789;53.216;5.624;2024-01-15T03:22:06;9.05;;;2.58;;
53875;SDS011;39789;53.216;5.624;2024-01-15T03:24:34;10.15;;;3.17;;
53875;SDS011;39789;53.216;5.624;2024-01-15T03:27:00;11.27;;;3.25;;
53875;SDS011;39789;53.216;5.624;2024-01-15T03:29:26;7.60;;;2.67;;
53875;SDS011;39789;53.216;5.624;2024-01-15T03:31:52;7.22;;;2.38;;
53875;SDS011;39789;53.216;5.624;2024-01-15T03:34:18;7.40;;;2.60;;
53875;SDS011;39789;53.216;5.624;2024-01-15T03:36:44;8.75;;;2.22;;
53875;SDS011;39789;53.216;5.624;2024-01-15T03:39:10;4.78;;;2.05;;
53875;SDS011;39789;53.216;5.624;2024-01-15T03:41:36;5.55;;;2.28;;
53875;SDS011;39789;53.216;5.624;2024-01-15T03:44:01;10.02;;;2.90;;
53875;SDS011;39789;53.216;5.624;2024-01-15T03:46:27;9.68;;;2.70;;
53875;SDS011;39789;53.216;5.624;2024-01-15T03:48:53;14.73;;;3.35;;
53875;SDS011;39789;53.216;5.624;2024-01-15T03:51:19;14.00;;;3.92;;
53875;SDS011;39789;53.216;5.624;2024-01-15T03:53:45;15.27;;;4.10;;
53875;SDS011;39789;53.216;5.624;2024-01-15T03:56:10;14.73;;;4.47;;
53875;SDS011;39789;53.216;5.624;2024-01-15T03:58:36;19.05;;;5.13;;
53875;SDS011;39789;53.216;5.624;2024-01-15T04:01:02;18.75;;;4.18;;
53875;SDS011;39789;53.216;5.624;2024-01-15T04:03:28;14.95;;;3.78;;
53875;SDS011;39789;53.216;5.624;2024-01-15T04:05:54;23.08;;;4.97;;
53875;SDS011;39789;53.216;5.624;2024-01-15T04:08:19;15.60;;;4.90;;
53875;SDS011;39789;53.216;5.624;2024-01-15T04:10:45;15.25;;;5.00;;
53875;SDS011;39789;53.216;5.624;2024-01-15T04:13:14;12.25;;;4.95;;
53875;SDS011;39789;53.216;5.624;2024-01-15T04:15:39;19.55;;;5.72;;
53875;SDS011;39789;53.216;5.624;2024-01-15T04:18:05;23.42;;;5.50;;
53875;SDS011;39789;53.216;5.624;2024-01-15T04:20:31;14.85;;;4.68;;
53875;SDS011;39789;53.216;5.624;2024-01-15T04:22:56;18.20;;;4.68;;
53875;SDS011;39789;53.216;5.624;2024-01-15T04:25:25;16.02;;;4.97;;
53875;SDS011;39789;53.216;5.624;2024-01-15T04:27:50;21.15;;;4.80;;
53875;SDS011;39789;53.216;5.624;2024-01-15T04:30:16;22.35;;;6.05;;
53875;SDS011;39789;53.216;5.624;2024-01-15T04:32:42;21.92;;;6.07;;
53875;SDS011;39789;53.216;5.624;2024-01-15T04:35:07;31.85;;;6.70;;
53875;SDS011;39789;53.216;5.624;2024-01-15T04:37:33;20.45;;;6.22;;
53875;SDS011;39789;53.216;5.624;2024-01-15T04:39:59;21.17;;;6.45;;
53875;SDS011;39789;53.216;5.624;2024-01-15T04:42:24;27.00;;;6.18;;
53875;SDS011;39789;53.216;5.624;2024-01-15T04:44:50;22.95;;;6.28;;
53875;SDS011;39789;53.216;5.624;2024-01-15T04:47:16;19.77;;;5.60;;
53875;SDS011;39789;53.216;5.624;2024-01-15T04:49:42;31.42;;;8.00;;
53875;SDS011;39789;53.216;5.624;2024-01-15T04:52:07;23.00;;;6.47;;
53875;SDS011;39789;53.216;5.624;2024-01-15T04:54:35;19.60;;;5.45;;
53875;SDS011;39789;53.216;5.624;2024-01-15T04:57:01;21.67;;;7.22;;
53875;SDS011;39789;53.216;5.624;2024-01-15T04:59:27;21.30;;;5.43;;
53875;SDS011;39789;53.216;5.624;2024-01-15T05:01:53;24.58;;;5.60;;
53875;SDS011;39789;53.216;5.624;2024-01-15T05:04:19;19.08;;;5.15;;
53875;SDS011;39789;53.216;5.624;2024-01-15T05:06:45;20.17;;;5.65;;
53875;SDS011;39789;53.216;5.624;2024-01-15T05:09:11;20.50;;;5.60;;
53875;SDS011;39789;53.216;5.624;2024-01-15T05:11:38;18.08;;;5.85;;
53875;SDS011;39789;53.216;5.624;2024-01-15T05:14:04;31.75;;;6.20;;
53875;SDS011;39789;53.216;5.624;2024-01-15T05:16:30;19.45;;;5.35;;
53875;SDS011;39789;53.216;5.624;2024-01-15T05:18:56;23.05;;;6.15;;
53875;SDS011;39789;53.216;5.624;2024-01-15T05:21:21;22.63;;;6.72;;
53875;SDS011;39789;53.216;5.624;2024-01-15T05:23:47;10.88;;;4.53;;
53875;SDS011;39789;53.216;5.624;2024-01-15T05:26:12;14.70;;;4.93;;
53875;SDS011;39789;53.216;5.624;2024-01-15T05:28:40;11.85;;;4.03;;
53875;SDS011;39789;53.216;5.624;2024-01-15T05:31:07;16.17;;;4.35;;
53875;SDS011;39789;53.216;5.624;2024-01-15T05:33:32;17.13;;;4.75;;
53875;SDS011;39789;53.216;5.624;2024-01-15T05:35:58;15.93;;;4.85;;
53875;SDS011;39789;53.216;5.624;2024-01-15T05:38:24;13.77;;;4.57;;
53875;SDS011;39789;53.216;5.624;2024-01-15T05:40:49;13.73;;;4.47;;
53875;SDS011;39789;53.216;5.624;2024-01-15T05:43:15;15.88;;;4.55;;
53875;SDS011;39789;53.216;5.624;2024-01-15T05:45:42;14.75;;;3.78;;
53875;SDS011;39789;53.216;5.624;2024-01-15T05:48:09;10.57;;;4.13;;
53875;SDS011;39789;53.216;5.624;2024-01-15T05:50:34;20.60;;;4.43;;
53875;SDS011;39789;53.216;5.624;2024-01-15T05:53:00;13.35;;;3.63;;
53875;SDS011;39789;53.216;5.624;2024-01-15T05:55:26;12.55;;;4.38;;
53875;SDS011;39789;53.216;5.624;2024-01-15T05:57:51;7.82;;;3.25;;
53875;SDS011;39789;53.216;5.624;2024-01-15T06:00:17;6.47;;;2.30;;
53875;SDS011;39789;53.216;5.624;2024-01-15T06:02:43;6.80;;;1.90;;
53875;SDS011;39789;53.216;5.624;2024-01-15T06:05:09;10.30;;;2.40;;
53875;SDS011;39789;53.216;5.624;2024-01-15T06:07:35;8.00;;;2.63;;
53875;SDS011;39789;53.216;5.624;2024-01-15T06:10:01;8.73;;;2.85;;
53875;SDS011;39789;53.216;5.624;2024-01-15T06:12:27;7.07;;;2.88;;
53875;SDS011;39789;53.216;5.624;2024-01-15T06:14:53;10.32;;;3.15;;
53875;SDS011;39789;53.216;5.624;2024-01-15T06:17:19;10.40;;;3.42;;
53875;SDS011;39789;53.216;5.624;2024-01-15T06:19:45;19.17;;;4.30;;
53875;SDS011;39789;53.216;5.624;2024-01-15T06:22:10;13.98;;;3.70;;
53875;SDS011;39789;53.216;5.624;2024-01-15T06:24:36;19.90;;;4.72;;
53875;SDS011;39789;53.216;5.624;2024-01-15T06:27:02;13.85;;;3.95;;
53875;SDS011;39789;53.216;5.624;2024-01-15T06:29:27;14.82;;;5.03;;
53875;SDS011;39789;53.216;5.624;2024-01-15T06:31:53;13.60;;;4.35;;
53875;SDS011;39789;53.216;5.624;2024-01-15T06:34:19;16.83;;;4.32;;
53875;SDS011;39789;53.216;5.624;2024-01-15T06:36:45;10.98;;;3.25;;
53875;SDS011;39789;53.216;5.624;2024-01-15T06:39:10;13.52;;;4.05;;
53875;SDS011;39789;53.216;5.624;2024-01-15T06:41:36;16.20;;;4.35;;
53875;SDS011;39789;53.216;5.624;2024-01-15T06:44:11;14.07;;;4.43;;
53875;SDS011;39789;53.216;5.624;2024-01-15T06:46:44;17.38;;;3.55;;
53875;SDS011;39789;53.216;5.624;2024-01-15T06:49:10;13.48;;;3.65;;
53875;SDS011;39789;53.216;5.624;2024-01-15T06:51:37;17.17;;;4.25;;
53875;SDS011;39789;53.216;5.624;2024-01-15T06:54:03;10.98;;;3.83;;
53875;SDS011;39789;53.216;5.624;2024-01-15T06:56:29;21.10;;;4.82;;
53875;SDS011;39789;53.216;5.624;2024-01-15T06:58:56;14.23;;;3.70;;
53875;SDS011;39789;53.216;5.624;2024-01-15T07:01:21;14.25;;;3.35;;
53875;SDS011;39789;53.216;5.624;2024-01-15T07:03:47;10.55;;;3.35;;
53875;SDS011;39789;53.216;5.624;2024-01-15T07:06:13;11.52;;;3.60;;
53875;SDS011;39789;53.216;5.624;2024-01-15T07:08:39;17.67;;;3.60;;
53875;SDS011;39789;53.216;5.624;2024-01-15T07:11:05;12.30;;;3.80;;
53875;SDS011;39789;53.216;5.624;2024-01-15T07:13:32;15.63;;;3.85;;
53875;SDS011;39789;53.216;5.624;2024-01-15T07:15:58;16.33;;;4.20;;
53875;SDS011;39789;53.216;5.624;2024-01-15T07:18:24;13.23;;;3.70;;
53875;SDS011;39789;53.216;5.624;2024-01-15T07:20:50;15.23;;;3.47;;
53875;SDS011;39789;53.216;5.624;2024-01-15T07:23:16;10.50;;;3.03;;
53875;SDS011;39789;53.216;5.624;2024-01-15T07:25:42;11.38;;;3.15;;
53875;SDS011;39789;53.216;5.624;2024-01-15T07:28:08;7.72;;;2.50;;
53875;SDS011;39789;53.216;5.624;2024-01-15T07:30:33;5.10;;;1.83;;
53875;SDS011;39789;53.216;5.624;2024-01-15T07:32:59;7.72;;;1.83;;
53875;SDS011;39789;53.216;5.624;2024-01-15T07:35:25;4.80;;;1.83;;
53875;SDS011;39789;53.216;5.624;2024-01-15T07:37:51;3.33;;;1.63;;
53875;SDS011;39789;53.216;5.624;2024-01-15T07:40:17;4.80;;;1.92;;
53875;SDS011;39789;53.216;5.624;2024-01-15T07:42:42;5.18;;;2.05;;
53875;SDS011;39789;53.216;5.624;2024-01-15T07:45:11;4.60;;;1.63;;
53875;SDS011;39789;53.216;5.624;2024-01-15T07:47:37;7.05;;;2.17;;
53875;SDS011;39789;53.216;5.624;2024-01-15T07:50:02;4.45;;;2.03;;
53875;SDS011;39789;53.216;5.624;2024-01-15T07:52:29;7.47;;;2.30;;
53875;SDS011;39789;53.216;5.624;2024-01-15T07:54:55;7.38;;;2.95;;
53875;SDS011;39789;53.216;5.624;2024-01-15T07:57:21;7.55;;;2.58;;
53875;SDS011;39789;53.216;5.624;2024-01-15T07:59:47;12.15;;;3.33;;
53875;SDS011;39789;53.216;5.624;2024-01-15T08:02:13;9.77;;;2.75;;
53875;SDS011;39789;53.216;5.624;2024-01-15T08:04:39;9.05;;;2.95;;
53875;SDS011;39789;53.216;5.624;2024-01-15T08:07:08;9.93;;;3.30;;
53875;SDS011;39789;53.216;5.624;2024-01-15T08:09:33;10.90;;;3.42;;
53875;SDS011;39789;53.216;5.624;2024-01-15T08:11:59;14.38;;;3.88;;
53875;SDS011;39789;53.216;5.624;2024-01-15T08:14:25;10.52;;;2.80;;
53875;SDS011;39789;53.216;5.624;2024-01-15T08:16:51;9.15;;;2.92;;
53875;SDS011;39789;53.216;5.624;2024-01-15T08:19:17;9.75;;;2.95;;
53875;SDS011;39789;53.216;5.624;2024-01-15T08:21:44;6.55;;;2.83;;
53875;SDS011;39789;53.216;5.624;2024-01-15T08:24:10;7.32;;;2.70;;
53875;SDS011;39789;53.216;5.624;2024-01-15T08:26:36;7.50;;;2.47;;
53875;SDS011;39789;53.216;5.624;2024-01-15T08:29:02;8.60;;;2.50;;
53875;SDS011;39789;53.216;5.624;2024-01-15T08:31:27;9.32;;;2.40;;
53875;SDS011;39789;53.216;5.624;2024-01-15T08:33:53;8.38;;;3.50;;
53875;SDS011;39789;53.216;5.624;2024-01-15T08:36:19;9.75;;;2.95;;
53875;SDS011;39789;53.216;5.624;2024-01-15T08:38:44;7.55;;;3.10;;
53875;SDS011;39789;53.216;5.624;2024-01-15T08:41:10;10.38;;;3.33;;
53875;SDS011;39789;53.216;5.624;2024-01-15T08:43:36;11.55;;;3.35;;
53875;SDS011;39789;53.216;5.624;2024-01-15T08:46:02;9.90;;;3.60;;
53875;SDS011;39789;53.216;5.624;2024-01-15T08:48:28;10.73;;;3.28;;
53875;SDS011;39789;53.216;5.624;2024-01-15T08:50:54;12.30;;;4.00;;
53875;SDS011;39789;53.216;5.624;2024-01-15T08:53:21;15.32;;;3.67;;
53875;SDS011;39789;53.216;5.624;2024-01-15T08:55:47;13.80;;;3.42;;
53875;SDS011;39789;53.216;5.624;2024-01-15T08:58:13;10.45;;;3.10;;
53875;SDS011;39789;53.216;5.624;2024-01-15T09:00:39;10.05;;;2.88;;
53875;SDS011;39789;53.216;5.624;2024-01-15T09:03:05;10.57;;;2.75;;
53875;SDS011;39789;53.216;5.624;2024-01-15T09:05:34;8.23;;;2.35;;
53875;SDS011;39789;53.216;5.624;2024-01-15T09:08:00;9.13;;;2.50;;
53875;SDS011;39789;53.216;5.624;2024-01-15T09:10:25;6.93;;;2.42;;
53875;SDS011;39789;53.216;5.624;2024-01-15T09:12:51;9.10;;;3.33;;
53875;SDS011;39789;53.216;5.624;2024-01-15T09:15:17;8.20;;;2.38;;
53875;SDS011;39789;53.216;5.624;2024-01-15T09:17:42;7.13;;;2.33;;
53875;SDS011;39789;53.216;5.624;2024-01-15T09:20:09;7.28;;;1.98;;
53875;SDS011;39789;53.216;5.624;2024-01-15T09:22:35;6.32;;;1.90;;
53875;SDS011;39789;53.216;5.624;2024-01-15T09:25:04;7.65;;;2.78;;
53875;SDS011;39789;53.216;5.624;2024-01-15T09:27:29;8.95;;;2.45;;
53875;SDS011;39789;53.216;5.624;2024-01-15T09:29:55;9.90;;;2.65;;
53875;SDS011;39789;53.216;5.624;2024-01-15T09:32:24;10.13;;;2.35;;
53875;SDS011;39789;53.216;5.624;2024-01-15T09:34:50;6.95;;;1.83;;
53875;SDS011;39789;53.216;5.624;2024-01-15T09:37:18;5.88;;;1.83;;
53875;SDS011;39789;53.216;5.624;2024-01-15T09:39:44;8.68;;;2.20;;
53875;SDS011;39789;53.216;5.624;2024-01-15T09:42:09;4.65;;;1.60;;
53875;SDS011;39789;53.216;5.624;2024-01-15T09:44:36;3.33;;;1.30;;
53875;SDS011;39789;53.216;5.624;2024-01-15T09:47:03;4.63;;;1.60;;
53875;SDS011;39789;53.216;5.624;2024-01-15T09:49:30;2.80;;;1.23;;
53875;SDS011;39789;53.216;5.624;2024-01-15T09:51:55;5.05;;;1.40;;
53875;SDS011;39789;53.216;5.624;2024-01-15T09:54:23;8.27;;;2.25;;
53875;SDS011;39789;53.216;5.624;2024-01-15T09:56:48;5.57;;;2.00;;
53875;SDS011;39789;53.216;5.624;2024-01-15T09:59:16;8.55;;;1.90;;
53875;SDS011;39789;53.216;5.624;2024-01-15T10:01:43;6.43;;;2.13;;
53875;SDS011;39789;53.216;5.624;2024-01-15T10:04:10;8.02;;;2.08;;
53875;SDS011;39789;53.216;5.624;2024-01-15T10:06:45;9.32;;;2.60;;
53875;SDS011;39789;53.216;5.624;2024-01-15T10:09:13;3.88;;;1.60;;
53875;SDS011;39789;53.216;5.624;2024-01-15T10:11:42;4.65;;;1.45;;
53875;SDS011;39789;53.216;5.624;2024-01-15T10:14:09;8.27;;;2.08;;
53875;SDS011;39789;53.216;5.624;2024-01-15T10:16:38;6.60;;;2.00;;
53875;SDS011;39789;53.216;5.624;2024-01-15T10:19:04;8.32;;;2.10;;
53875;SDS011;39789;53.216;5.624;2024-01-15T10:21:34;6.75;;;2.17;;
53875;SDS011;39789;53.216;5.624;2024-01-15T10:24:00;13.73;;;2.83;;
53875;SDS011;39789;53.216;5.624;2024-01-15T10:26:27;7.95;;;2.72;;
53875;SDS011;39789;53.216;5.624;2024-01-15T10:28:53;10.45;;;3.15;;
53875;SDS011;39789;53.216;5.624;2024-01-15T10:31:19;10.45;;;3.42;;
53875;SDS011;39789;53.216;5.624;2024-01-15T10:33:47;18.52;;;3.05;;
53875;SDS011;39789;53.216;5.624;2024-01-15T10:36:16;8.60;;;2.35;;
53875;SDS011;39789;53.216;5.624;2024-01-15T10:38:43;6.75;;;2.00;;
53875;SDS011;39789;53.216;5.624;2024-01-15T10:41:09;10.77;;;3.28;;
53875;SDS011;39789;53.216;5.624;2024-01-15T10:43:35;8.70;;;2.67;;
53875;SDS011;39789;53.216;5.624;2024-01-15T10:46:00;11.68;;;2.97;;
53875;SDS011;39789;53.216;5.624;2024-01-15T10:48:27;8.63;;;3.05;;
53875;SDS011;39789;53.216;5.624;2024-01-15T10:50:56;5.43;;;2.20;;
53875;SDS011;39789;53.216;5.624;2024-01-15T10:53:25;9.05;;;2.75;;
53875;SDS011;39789;53.216;5.624;2024-01-15T10:55:53;11.68;;;3.50;;
53875;SDS011;39789;53.216;5.624;2024-01-15T10:58:20;11.88;;;3.00;;
53875;SDS011;39789;53.216;5.624;2024-01-15T11:00:46;10.73;;;3.92;;
53875;SDS011;39789;53.216;5.624;2024-01-15T11:03:12;22.60;;;5.07;;
53875;SDS011;39789;53.216;5.624;2024-01-15T11:05:42;20.38;;;5.10;;
53875;SDS011;39789;53.216;5.624;2024-01-15T11:08:09;18.00;;;5.30;;
53875;SDS011;39789;53.216;5.624;2024-01-15T11:10:43;13.82;;;4.95;;
53875;SDS011;39789;53.216;5.624;2024-01-15T11:13:20;10.48;;;3.28;;
53875;SDS011;39789;53.216;5.624;2024-01-15T11:16:03;10.18;;;2.92;;
53875;SDS011;39789;53.216;5.624;2024-01-15T11:18:37;5.72;;;2.22;;
53875;SDS011;39789;53.216;5.624;2024-01-15T11:23:43;5.97;;;2.03;;
53875;SDS011;39789;53.216;5.624;2024-01-15T11:29:06;12.70;;;3.10;;
53875;SDS011;39789;53.216;5.624;2024-01-15T11:34:08;12.05;;;3.22;;
53875;SDS011;39789;53.216;5.624;2024-01-15T11:41:58;11.15;;;3.08;;
53875;SDS011;39789;53.216;5.624;2024-01-15T11:44:28;11.25;;;3.42;;
53875;SDS011;39789;53.216;5.624;2024-01-15T11:47:01;13.23;;;3.47;;
53875;SDS011;39789;53.216;5.624;2024-01-15T11:52:36;12.45;;;3.22;;
53875;SDS011;39789;53.216;5.624;2024-01-15T11:57:49;8.30;;;3.00;;
53875;SDS011;39789;53.216;5.624;2024-01-15T12:00:17;10.40;;;3.40;;
53875;SDS011;39789;53.216;5.624;2024-01-15T12:02:47;10.90;;;3.53;;
53875;SDS011;39789;53.216;5.624;2024-01-15T12:05:15;6.22;;;2.83;;
53875;SDS011;39789;53.216;5.624;2024-01-15T12:07:43;13.95;;;4.30;;
53875;SDS011;39789;53.216;5.624;2024-01-15T12:10:10;14.05;;;3.95;;
53875;SDS011;39789;53.216;5.624;2024-01-15T12:15:09;12.82;;;3.20;;
53875;SDS011;39789;53.216;5.624;2024-01-15T12:17:35;18.67;;;4.03;;
53875;SDS011;39789;53.216;5.624;2024-01-15T12:20:05;12.77;;;4.00;;
53875;SDS011;39789;53.216;5.624;2024-01-15T12:22:31;15.27;;;4.40;;
53875;SDS011;39789;53.216;5.624;2024-01-15T12:24:57;15.57;;;4.28;;
53875;SDS011;39789;53.216;5.624;2024-01-15T12:27:25;17.40;;;5.05;;
53875;SDS011;39789;53.216;5.624;2024-01-15T12:29:52;18.40;;;4.88;;
53875;SDS011;39789;53.216;5.624;2024-01-15T12:32:18;10.63;;;4.45;;
53875;SDS011;39789;53.216;5.624;2024-01-15T12:34:45;11.95;;;3.30;;
53875;SDS011;39789;53.216;5.624;2024-01-15T12:37:11;11.23;;;3.75;;
53875;SDS011;39789;53.216;5.624;2024-01-15T12:39:37;11.88;;;3.63;;
53875;SDS011;39789;53.216;5.624;2024-01-15T12:42:03;8.98;;;2.00;;
53875;SDS011;39789;53.216;5.624;2024-01-15T12:44:29;7.95;;;2.83;;
53875;SDS011;39789;53.216;5.624;2024-01-15T12:46:55;17.25;;;3.47;;
53875;SDS011;39789;53.216;5.624;2024-01-15T12:49:24;13.75;;;3.97;;
53875;SDS011;39789;53.216;5.624;2024-01-15T12:51:59;12.65;;;3.72;;
53875;SDS011;39789;53.216;5.624;2024-01-15T12:54:25;14.40;;;5.07;;
53875;SDS011;39789;53.216;5.624;2024-01-15T12:56:51;19.58;;;4.55;;
53875;SDS011;39789;53.216;5.624;2024-01-15T12:59:17;17.42;;;4.25;;
53875;SDS011;39789;53.216;5.624;2024-01-15T13:01:43;17.42;;;4.50;;
53875;SDS011;39789;53.216;5.624;2024-01-15T13:04:10;17.67;;;4.75;;
53875;SDS011;39789;53.216;5.624;2024-01-15T13:06:36;23.67;;;5.85;;
53875;SDS011;39789;53.216;5.624;2024-01-15T13:09:02;21.38;;;5.45;;
53875;SDS011;39789;53.216;5.624;2024-01-15T13:11:30;16.08;;;4.38;;
53875;SDS011;39789;53.216;5.624;2024-01-15T13:13:57;9.85;;;3.40;;
53875;SDS011;39789;53.216;5.624;2024-01-15T13:16:22;14.07;;;2.95;;
53875;SDS011;39789;53.216;5.624;2024-01-15T13:18:48;8.68;;;3.20;;
53875;SDS011;39789;53.216;5.624;2024-01-15T13:21:15;13.13;;;3.65;;
53875;SDS011;39789;53.216;5.624;2024-01-15T13:23:40;8.68;;;2.03;;
53875;SDS011;39789;53.216;5.624;2024-01-15T13:26:06;9.13;;;2.45;;
53875;SDS011;39789;53.216;5.624;2024-01-15T13:28:32;6.50;;;1.60;;
53875;SDS011;39789;53.216;5.624;2024-01-15T13:30:59;5.82;;;1.40;;
53875;SDS011;39789;53.216;5.624;2024-01-15T13:33:26;11.95;;;2.85;;
53875;SDS011;39789;53.216;5.624;2024-01-15T13:35:51;12.00;;;3.65;;
53875;SDS011;39789;53.216;5.624;2024-01-15T13:38:17;14.98;;;3.90;;
53875;SDS011;39789;53.216;5.624;2024-01-15T13:40:43;9.93;;;4.10;;
53875;SDS011;39789;53.216;5.624;2024-01-15T13:43:10;11.80;;;4.47;;
53875;SDS011;39789;53.216;5.624;2024-01-15T13:45:37;16.15;;;4.55;;
53875;SDS011;39789;53.216;5.624;2024-01-15T13:48:03;13.25;;;3.90;;
53875;SDS011;39789;53.216;5.624;2024-01-15T13:50:31;13.23;;;3.78;;
53875;SDS011;39789;53.216;5.624;2024-01-15T13:52:56;14.75;;;4.20;;
53875;SDS011;39789;53.216;5.624;2024-01-15T13:55:22;19.92;;;4.45;;
53875;SDS011;39789;53.216;5.624;2024-01-15T13:57:48;15.07;;;3.70;;
53875;SDS011;39789;53.216;5.624;2024-01-15T14:00:14;12.65;;;3.75;;
53875;SDS011;39789;53.216;5.624;2024-01-15T14:02:43;5.95;;;2.20;;
53875;SDS011;39789;53.216;5.624;2024-01-15T14:05:09;8.48;;;2.53;;
53875;SDS011;39789;53.216;5.624;2024-01-15T14:07:40;7.20;;;2.90;;
53875;SDS011;39789;53.216;5.624;2024-01-15T14:10:08;7.75;;;2.45;;
53875;SDS011;39789;53.216;5.624;2024-01-15T14:12:35;5.97;;;1.95;;
53875;SDS011;39789;53.216;5.624;2024-01-15T14:15:02;5.10;;;2.10;;
53875;SDS011;39789;53.216;5.624;2024-01-15T14:17:28;5.43;;;1.95;;
53875;SDS011;39789;53.216;5.624;2024-01-15T14:19:54;3.83;;;1.65;;
53875;SDS011;39789;53.216;5.624;2024-01-15T14:22:20;3.78;;;1.40;;
53875;SDS011;39789;53.216;5.624;2024-01-15T14:24:45;5.55;;;1.70;;
53875;SDS011;39789;53.216;5.624;2024-01-15T14:27:11;3.28;;;1.77;;
53875;SDS011;39789;53.216;5.624;2024-01-15T14:29:37;9.20;;;1.90;;
53875;SDS011;39789;53.216;5.624;2024-01-15T14:32:03;6.97;;;2.95;;
53875;SDS011;39789;53.216;5.624;2024-01-15T14:34:30;7.85;;;1.73;;
53875;SDS011;39789;53.216;5.624;2024-01-15T14:36:55;4.22;;;1.60;;
53875;SDS011;39789;53.216;5.624;2024-01-15T14:39:21;6.15;;;1.83;;
53875;SDS011;39789;53.216;5.624;2024-01-15T14:41:48;6.28;;;2.40;;
53875;SDS011;39789;53.216;5.624;2024-01-15T14:44:14;7.53;;;2.25;;
53875;SDS011;39789;53.216;5.624;2024-01-15T14:46:40;9.32;;;3.10;;
53875;SDS011;39789;53.216;5.624;2024-01-15T14:49:05;12.95;;;2.60;;
53875;SDS011;39789;53.216;5.624;2024-01-15T14:51:31;9.35;;;2.65;;
53875;SDS011;39789;53.216;5.624;2024-01-15T14:53:57;9.30;;;2.75;;
53875;SDS011;39789;53.216;5.624;2024-01-15T14:56:23;8.75;;;1.92;;